sensor_id;sensor_type;location;lat;lon;timestamp;P1;durP1;ratioP1;P2;durP2;ratioP2
19280;SDS011;9774;52.034;5.342;2024-01-06T00:02:05;7.50;;;4.95;;
19280;SDS011;9774;52.034;5.342;2024-01-06T00:04:32;6.40;;;4.65;;
19280;SDS011;9774;52.034;5.342;2024-01-06T00:06:59;6.03;;;4.43;;
19280;SDS011;9774;52.034;5.342;2024-01-06T00:09:26;6.25;;;4.72;;
19280;SDS011;9774;52.034;5.342;2024-01-06T00:11:53;5.53;;;4.10;;
19280;SDS011;9774;52.034;5.342;2024-01-06T00:14:20;5.88;;;4.85;;
19280;SDS011;9774;52.034;5.342;2024-01-06T00:16:47;6.32;;;4.78;;
19280;SDS011;9774;52.034;5.342;2024-01-06T00:19:15;5.78;;;4.53;;
19280;SDS011;9774;52.034;5.342;2024-01-06T00:21:43;6.15;;;4.32;;
19280;SDS011;9774;52.034;5.342;2024-01-06T00:24:10;5.57;;;3.83;;
19280;SDS011;9774;52.034;5.342;2024-01-06T00:26:37;5.50;;;3.85;;
19280;SDS011;9774;52.034;5.342;2024-01-06T00:29:04;5.05;;;4.15;;
19280;SDS011;9774;52.034;5.342;2024-01-06T00:31:31;5.07;;;4.13;;
19280;SDS011;9774;52.034;5.342;2024-01-06T00:33:58;4.40;;;3.55;;
19280;SDS011;9774;52.034;5.342;2024-01-06T00:36:26;3.33;;;2.92;;
19280;SDS011;9774;52.034;5.342;2024-01-06T00:38:53;4.00;;;3.30;;
19280;SDS011;9774;52.034;5.342;2024-01-06T00:41:20;4.15;;;3.25;;
19280;SDS011;9774;52.034;5.342;2024-01-06T00:43:47;4.25;;;3.15;;
19280;SDS011;9774;52.034;5.342;2024-01-06T00:46:14;3.60;;;3.25;;
19280;SDS011;9774;52.034;5.342;2024-01-06T00:48:41;3.63;;;2.92;;
19280;SDS011;9774;52.034;5.342;2024-01-06T00:51:08;5.07;;;2.65;;
19280;SDS011;9774;52.034;5.342;2024-01-06T00:53:37;3.00;;;2.63;;
19280;SDS011;9774;52.034;5.342;2024-01-06T00:56:04;3.45;;;2.95;;
19280;SDS011;9774;52.034;5.342;2024-01-06T00:58:31;3.28;;;2.55;;
19280;SDS011;9774;52.034;5.342;2024-01-06T01:00:58;3.22;;;2.65;;
19280;SDS011;9774;52.034;5.342;2024-01-06T01:03:25;3.50;;;2.97;;
19280;SDS011;9774;52.034;5.342;2024-01-06T01:05:52;3.58;;;3.22;;
19280;SDS011;9774;52.034;5.342;2024-01-06T01:08:19;3.00;;;2.30;;
19280;SDS011;9774;52.034;5.342;2024-01-06T01:10:48;3.78;;;2.75;;
19280;SDS011;9774;52.034;5.342;2024-01-06T01:13:15;3.90;;;2.70;;
19280;SDS011;9774;52.034;5.342;2024-01-06T01:15:42;3.20;;;2.75;;
19280;SDS011;9774;52.034;5.342;2024-01-06T01:18:09;3.85;;;2.92;;
19280;SDS011;9774;52.034;5.342;2024-01-06T01:20:36;3.47;;;3.00;;
19280;SDS011;9774;52.034;5.342;2024-01-06T01:23:03;2.92;;;2.60;;
19280;SDS011;9774;52.034;5.342;2024-01-06T01:25:30;3.72;;;2.75;;
19280;SDS011;9774;52.034;5.342;2024-01-06T01:27:58;2.55;;;2.10;;
19280;SDS011;9774;52.034;5.342;2024-01-06T01:30:25;3.33;;;2.70;;
19280;SDS011;9774;52.034;5.342;2024-01-06T01:32:53;3.83;;;2.75;;
19280;SDS011;9774;52.034;5.342;2024-01-06T01:35:20;3.17;;;2.58;;
19280;SDS011;9774;52.034;5.342;2024-01-06T01:37:47;3.42;;;2.75;;
19280;SDS011;9774;52.034;5.342;2024-01-06T01:40:14;4.10;;;2.50;;
19280;SDS011;9774;52.034;5.342;2024-01-06T01:42:42;3.00;;;2.63;;
19280;SDS011;9774;52.034;5.342;2024-01-06T01:45:11;3.38;;;2.70;;
19280;SDS011;9774;52.034;5.342;2024-01-06T01:47:38;3.65;;;2.83;;
19280;SDS011;9774;52.034;5.342;2024-01-06T01:50:05;3.55;;;2.55;;
19280;SDS011;9774;52.034;5.342;2024-01-06T01:52:34;4.15;;;2.67;;
19280;SDS011;9774;52.034;5.342;2024-01-06T01:55:03;3.42;;;2.65;;
19280;SDS011;9774;52.034;5.342;2024-01-06T01:57:31;2.80;;;2.30;;
19280;SDS011;9774;52.034;5.342;2024-01-06T01:59:58;3.75;;;2.42;;
19280;SDS011;9774;52.034;5.342;2024-01-06T02:02:29;3.17;;;2.58;;
19280;SDS011;9774;52.034;5.342;2024-01-06T02:04:57;3.05;;;2.50;;
19280;SDS011;9774;52.034;5.342;2024-01-06T02:07:25;3.15;;;2.80;;
19280;SDS011;9774;52.034;5.342;2024-01-06T02:09:52;3.15;;;2.85;;
19280;SDS011;9774;52.034;5.342;2024-01-06T02:12:19;3.83;;;3.17;;
19280;SDS011;9774;52.034;5.342;2024-01-06T02:14:46;3.13;;;2.83;;
19280;SDS011;9774;52.034;5.342;2024-01-06T02:17:13;3.33;;;3.03;;
19280;SDS011;9774;52.034;5.342;2024-01-06T02:19:42;3.30;;;2.80;;
19280;SDS011;9774;52.034;5.342;2024-01-06T02:22:10;3.40;;;2.90;;
19280;SDS011;9774;52.034;5.342;2024-01-06T02:24:37;3.90;;;3.45;;
19280;SDS011;9774;52.034;5.342;2024-01-06T02:27:04;3.60;;;3.30;;
19280;SDS011;9774;52.034;5.342;2024-01-06T02:29:31;3.97;;;3.58;;
19280;SDS011;9774;52.034;5.342;2024-01-06T02:31:58;3.42;;;3.13;;
19280;SDS011;9774;52.034;5.342;2024-01-06T02:34:25;3.40;;;2.60;;
19280;SDS011;9774;52.034;5.342;2024-01-06T02:36:52;3.33;;;3.03;;
19280;SDS011;9774;52.034;5.342;2024-01-06T02:39:21;4.20;;;2.92;;
19280;SDS011;9774;52.034;5.342;2024-01-06T02:41:48;3.63;;;3.03;;
19280;SDS011;9774;52.034;5.342;2024-01-06T02:44:16;3.00;;;2.70;;
19280;SDS011;9774;52.034;5.342;2024-01-06T02:46:43;4.00;;;3.10;;
19280;SDS011;9774;52.034;5.342;2024-01-06T02:49:10;3.10;;;2.80;;
19280;SDS011;9774;52.034;5.342;2024-01-06T02:51:37;4.47;;;2.95;;
19280;SDS011;9774;52.034;5.342;2024-01-06T02:54:04;2.50;;;2.30;;
19280;SDS011;9774;52.034;5.342;2024-01-06T02:56:32;3.88;;;2.50;;
19280;SDS011;9774;52.034;5.342;2024-01-06T02:58:59;3.92;;;2.45;;
19280;SDS011;9774;52.034;5.342;2024-01-06T03:01:26;3.17;;;2.85;;
19280;SDS011;9774;52.034;5.342;2024-01-06T03:03:53;3.28;;;2.97;;
19280;SDS011;9774;52.034;5.342;2024-01-06T03:06:20;2.50;;;2.28;;
19280;SDS011;9774;52.034;5.342;2024-01-06T03:08:47;3.38;;;2.75;;
19280;SDS011;9774;52.034;5.342;2024-01-06T03:11:14;3.92;;;2.30;;
19280;SDS011;9774;52.034;5.342;2024-01-06T03:13:43;3.03;;;2.40;;
19280;SDS011;9774;52.034;5.342;2024-01-06T03:16:11;3.30;;;2.55;;
19280;SDS011;9774;52.034;5.342;2024-01-06T03:18:38;3.20;;;2.40;;
19280;SDS011;9774;52.034;5.342;2024-01-06T03:21:15;2.67;;;2.45;;
19280;SDS011;9774;52.034;5.342;2024-01-06T03:23:43;3.70;;;2.72;;
19280;SDS011;9774;52.034;5.342;2024-01-06T03:26:10;3.20;;;2.83;;
19280;SDS011;9774;52.034;5.342;2024-01-06T03:28:37;2.90;;;2.60;;
19280;SDS011;9774;52.034;5.342;2024-01-06T03:31:06;2.88;;;2.58;;
19280;SDS011;9774;52.034;5.342;2024-01-06T03:33:33;3.58;;;2.92;;
19280;SDS011;9774;52.034;5.342;2024-01-06T03:36:03;3.08;;;2.60;;
19280;SDS011;9774;52.034;5.342;2024-01-06T03:38:32;3.03;;;2.60;;
19280;SDS011;9774;52.034;5.342;2024-01-06T03:40:59;2.88;;;2.58;;
19280;SDS011;9774;52.034;5.342;2024-01-06T03:43:26;2.55;;;2.10;;
19280;SDS011;9774;52.034;5.342;2024-01-06T03:45:53;3.13;;;2.70;;
19280;SDS011;9774;52.034;5.342;2024-01-06T03:48:23;3.17;;;2.78;;
19280;SDS011;9774;52.034;5.342;2024-01-06T03:50:50;3.88;;;2.95;;
19280;SDS011;9774;52.034;5.342;2024-01-06T03:53:17;4.15;;;2.80;;
19280;SDS011;9774;52.034;5.342;2024-01-06T03:55:44;4.47;;;2.55;;
19280;SDS011;9774;52.034;5.342;2024-01-06T03:58:11;2.72;;;2.53;;
19280;SDS011;9774;52.034;5.342;2024-01-06T04:00:38;3.58;;;2.75;;
19280;SDS011;9774;52.034;5.342;2024-01-06T04:03:05;3.05;;;2.40;;
19280;SDS011;9774;52.034;5.342;2024-01-06T04:05:34;4.68;;;3.75;;
19280;SDS011;9774;52.034;5.342;2024-01-06T04:08:01;3.55;;;2.70;;
19280;SDS011;9774;52.034;5.342;2024-01-06T04:10:28;3.53;;;2.95;;
19280;SDS011;9774;52.034;5.342;2024-01-06T04:12:55;3.08;;;2.78;;
19280;SDS011;9774;52.034;5.342;2024-01-06T04:15:22;4.00;;;3.42;;
19280;SDS011;9774;52.034;5.342;2024-01-06T04:17:49;4.78;;;3.58;;
19280;SDS011;9774;52.034;5.342;2024-01-06T04:20:17;4.50;;;3.60;;
19280;SDS011;9774;52.034;5.342;2024-01-06T04:22:46;4.47;;;3.85;;
19280;SDS011;9774;52.034;5.342;2024-01-06T04:25:13;4.80;;;3.92;;
19280;SDS011;9774;52.034;5.342;2024-01-06T04:27:40;4.38;;;3.90;;
19280;SDS011;9774;52.034;5.342;2024-01-06T04:30:07;4.28;;;3.70;;
19280;SDS011;9774;52.034;5.342;2024-01-06T04:32:36;4.88;;;3.33;;
19280;SDS011;9774;52.034;5.342;2024-01-06T04:35:03;4.60;;;3.83;;
19280;SDS011;9774;52.034;5.342;2024-01-06T04:37:31;4.57;;;3.90;;
19280;SDS011;9774;52.034;5.342;2024-01-06T04:39:59;4.82;;;3.75;;
19280;SDS011;9774;52.034;5.342;2024-01-06T04:42:27;5.22;;;3.83;;
19280;SDS011;9774;52.034;5.342;2024-01-06T04:44:54;4.22;;;3.63;;
19280;SDS011;9774;52.034;5.342;2024-01-06T04:47:21;4.22;;;3.50;;
19280;SDS011;9774;52.034;5.342;2024-01-06T04:49:48;4.07;;;3.55;;
19280;SDS011;9774;52.034;5.342;2024-01-06T04:52:15;4.38;;;3.60;;
19280;SDS011;9774;52.034;5.342;2024-01-06T04:54:42;4.93;;;3.97;;
19280;SDS011;9774;52.034;5.342;2024-01-06T04:57:11;4.57;;;3.88;;
19280;SDS011;9774;52.034;5.342;2024-01-06T04:59:38;5.38;;;3.42;;
19280;SDS011;9774;52.034;5.342;2024-01-06T05:02:05;4.43;;;3.47;;
19280;SDS011;9774;52.034;5.342;2024-01-06T05:04:32;4.97;;;4.07;;
19280;SDS011;9774;52.034;5.342;2024-01-06T05:06:59;5.85;;;3.80;;
19280;SDS011;9774;52.034;5.342;2024-01-06T05:09:27;5.88;;;4.07;;
19280;SDS011;9774;52.034;5.342;2024-01-06T05:11:54;4.85;;;3.97;;
19280;SDS011;9774;52.034;5.342;2024-01-06T05:14:22;4.78;;;4.18;;
19280;SDS011;9774;52.034;5.342;2024-01-06T05:16:49;4.90;;;3.80;;
19280;SDS011;9774;52.034;5.342;2024-01-06T05:19:16;5.32;;;3.90;;
19280;SDS011;9774;52.034;5.342;2024-01-06T05:21:46;5.30;;;3.92;;
19280;SDS011;9774;52.034;5.342;2024-01-06T05:24:13;6.25;;;4.53;;
19280;SDS011;9774;52.034;5.342;2024-01-06T05:26:41;6.72;;;4.55;;
19280;SDS011;9774;52.034;5.342;2024-01-06T05:29:08;11.40;;;4.70;;
19280;SDS011;9774;52.034;5.342;2024-01-06T05:31:36;5.60;;;4.40;;
19280;SDS011;9774;52.034;5.342;2024-01-06T05:34:03;6.20;;;4.88;;
19280;SDS011;9774;52.034;5.342;2024-01-06T05:36:30;5.57;;;4.75;;
19280;SDS011;9774;52.034;5.342;2024-01-06T05:38:58;4.45;;;3.75;;
19280;SDS011;9774;52.034;5.342;2024-01-06T05:41:25;9.02;;;5.13;;
19280;SDS011;9774;52.034;5.342;2024-01-06T05:43:52;6.38;;;5.13;;
19280;SDS011;9774;52.034;5.342;2024-01-06T05:46:24;5.57;;;4.70;;
19280;SDS011;9774;52.034;5.342;2024-01-06T05:48:52;5.72;;;4.60;;
19280;SDS011;9774;52.034;5.342;2024-01-06T05:51:21;8.45;;;4.85;;
19280;SDS011;9774;52.034;5.342;2024-01-06T05:53:48;7.55;;;5.40;;
19280;SDS011;9774;52.034;5.342;2024-01-06T05:56:21;5.88;;;4.70;;
19280;SDS011;9774;52.034;5.342;2024-01-06T05:58:50;6.07;;;4.90;;
19280;SDS011;9774;52.034;5.342;2024-01-06T06:01:18;6.80;;;4.68;;
19280;SDS011;9774;52.034;5.342;2024-01-06T06:03:45;5.97;;;4.72;;
19280;SDS011;9774;52.034;5.342;2024-01-06T06:06:14;6.47;;;4.88;;
19280;SDS011;9774;52.034;5.342;2024-01-06T06:08:41;5.45;;;4.82;;
19280;SDS011;9774;52.034;5.342;2024-01-06T06:11:09;7.05;;;4.70;;
19280;SDS011;9774;52.034;5.342;2024-01-06T06:13:37;8.13;;;5.88;;
19280;SDS011;9774;52.034;5.342;2024-01-06T06:16:07;6.75;;;4.72;;
19280;SDS011;9774;52.034;5.342;2024-01-06T06:18:37;6.35;;;4.70;;
19280;SDS011;9774;52.034;5.342;2024-01-06T06:21:04;7.32;;;4.88;;
19280;SDS011;9774;52.034;5.342;2024-01-06T06:23:34;7.88;;;5.93;;
19280;SDS011;9774;52.034;5.342;2024-01-06T06:26:04;8.40;;;5.32;;
19280;SDS011;9774;52.034;5.342;2024-01-06T06:28:32;8.15;;;5.93;;
19280;SDS011;9774;52.034;5.342;2024-01-06T06:30:59;6.60;;;5.82;;
19280;SDS011;9774;52.034;5.342;2024-01-06T06:33:26;6.55;;;5.70;;
19280;SDS011;9774;52.034;5.342;2024-01-06T06:35:53;10.38;;;5.97;;
19280;SDS011;9774;52.034;5.342;2024-01-06T06:38:20;8.60;;;5.75;;
19280;SDS011;9774;52.034;5.342;2024-01-06T06:40:49;7.65;;;5.65;;
19280;SDS011;9774;52.034;5.342;2024-01-06T06:43:16;6.65;;;5.32;;
19280;SDS011;9774;52.034;5.342;2024-01-06T06:45:43;6.47;;;5.22;;
19280;SDS011;9774;52.034;5.342;2024-01-06T06:48:10;6.35;;;5.50;;
19280;SDS011;9774;52.034;5.342;2024-01-06T06:50:37;6.53;;;5.38;;
19280;SDS011;9774;52.034;5.342;2024-01-06T06:53:06;5.90;;;5.05;;
19280;SDS011;9774;52.034;5.342;2024-01-06T06:55:34;7.22;;;5.00;;
19280;SDS011;9774;52.034;5.342;2024-01-06T06:58:04;7.50;;;5.78;;
19280;SDS011;9774;52.034;5.342;2024-01-06T07:00:31;6.40;;;5.25;;
19280;SDS011;9774;52.034;5.342;2024-01-06T07:02:58;5.15;;;3.92;;
19280;SDS011;9774;52.034;5.342;2024-01-06T07:05:25;5.47;;;4.63;;
19280;SDS011;9774;52.034;5.342;2024-01-06T07:07:53;6.40;;;4.80;;
19280;SDS011;9774;52.034;5.342;2024-01-06T07:10:20;5.85;;;4.90;;
19280;SDS011;9774;52.034;5.342;2024-01-06T07:12:48;5.03;;;4.25;;
19280;SDS011;9774;52.034;5.342;2024-01-06T07:15:16;6.32;;;4.88;;
19280;SDS011;9774;52.034;5.342;2024-01-06T07:17:43;6.38;;;4.60;;
19280;SDS011;9774;52.034;5.342;2024-01-06T07:20:11;6.40;;;4.25;;
19280;SDS011;9774;52.034;5.342;2024-01-06T07:22:38;5.95;;;4.45;;
19280;SDS011;9774;52.034;5.342;2024-01-06T07:25:06;6.45;;;5.13;;
19280;SDS011;9774;52.034;5.342;2024-01-06T07:27:33;6.95;;;4.60;;
19280;SDS011;9774;52.034;5.342;2024-01-06T07:30:00;8.00;;;4.90;;
19280;SDS011;9774;52.034;5.342;2024-01-06T07:32:29;5.28;;;4.10;;
19280;SDS011;9774;52.034;5.342;2024-01-06T07:34:57;6.63;;;4.93;;
19280;SDS011;9774;52.034;5.342;2024-01-06T07:37:24;5.30;;;4.20;;
19280;SDS011;9774;52.034;5.342;2024-01-06T07:39:51;4.97;;;3.85;;
19280;SDS011;9774;52.034;5.342;2024-01-06T07:42:18;5.57;;;4.30;;
19280;SDS011;9774;52.034;5.342;2024-01-06T07:44:47;5.53;;;3.92;;
19280;SDS011;9774;52.034;5.342;2024-01-06T07:47:14;6.03;;;4.25;;
19280;SDS011;9774;52.034;5.342;2024-01-06T07:49:42;5.75;;;4.05;;
19280;SDS011;9774;52.034;5.342;2024-01-06T07:52:09;6.90;;;4.90;;
19280;SDS011;9774;52.034;5.342;2024-01-06T07:54:36;7.30;;;4.88;;
19280;SDS011;9774;52.034;5.342;2024-01-06T07:57:03;5.13;;;4.32;;
19280;SDS011;9774;52.034;5.342;2024-01-06T07:59:30;7.05;;;4.68;;
19280;SDS011;9774;52.034;5.342;2024-01-06T08:01:58;5.72;;;4.10;;
19280;SDS011;9774;52.034;5.342;2024-01-06T08:04:25;6.28;;;4.70;;
19280;SDS011;9774;52.034;5.342;2024-01-06T08:06:53;8.90;;;4.15;;
19280;SDS011;9774;52.034;5.342;2024-01-06T08:09:20;6.75;;;4.25;;
19280;SDS011;9774;52.034;5.342;2024-01-06T08:11:48;5.03;;;4.13;;
19280;SDS011;9774;52.034;5.342;2024-01-06T08:14:15;7.30;;;4.53;;
19280;SDS011;9774;52.034;5.342;2024-01-06T08:16:42;4.80;;;4.13;;
19280;SDS011;9774;52.034;5.342;2024-01-06T08:19:10;5.45;;;3.90;;
19280;SDS011;9774;52.034;5.342;2024-01-06T08:21:37;4.78;;;4.07;;
19280;SDS011;9774;52.034;5.342;2024-01-06T08:24:05;6.07;;;3.92;;
19280;SDS011;9774;52.034;5.342;2024-01-06T08:26:32;5.78;;;4.20;;
19280;SDS011;9774;52.034;5.342;2024-01-06T08:28:59;6.05;;;4.25;;
19280;SDS011;9774;52.034;5.342;2024-01-06T08:31:26;6.00;;;3.97;;
19280;SDS011;9774;52.034;5.342;2024-01-06T08:33:52;5.25;;;4.55;;
19280;SDS011;9774;52.034;5.342;2024-01-06T08:36:20;7.88;;;4.25;;
19280;SDS011;9774;52.034;5.342;2024-01-06T08:38:47;4.75;;;4.25;;
19280;SDS011;9774;52.034;5.342;2024-01-06T08:41:16;5.55;;;4.20;;
19280;SDS011;9774;52.034;5.342;2024-01-06T08:43:43;5.15;;;3.85;;
19280;SDS011;9774;52.034;5.342;2024-01-06T08:46:10;5.13;;;3.83;;
19280;SDS011;9774;52.034;5.342;2024-01-06T08:48:37;6.78;;;4.72;;
19280;SDS011;9774;52.034;5.342;2024-01-06T08:51:04;5.75;;;4.10;;
19280;SDS011;9774;52.034;5.342;2024-01-06T08:53:31;5.18;;;4.15;;
19280;SDS011;9774;52.034;5.342;2024-01-06T08:55:58;6.65;;;4.30;;
19280;SDS011;9774;52.034;5.342;2024-01-06T08:58:26;6.53;;;4.63;;
19280;SDS011;9774;52.034;5.342;2024-01-06T09:00:53;4.78;;;3.97;;
19280;SDS011;9774;52.034;5.342;2024-01-06T09:03:20;6.65;;;4.40;;
19280;SDS011;9774;52.034;5.342;2024-01-06T09:05:51;5.20;;;4.07;;
19280;SDS011;9774;52.034;5.342;2024-01-06T09:08:18;4.63;;;3.50;;
19280;SDS011;9774;52.034;5.342;2024-01-06T09:10:45;6.90;;;4.05;;
19280;SDS011;9774;52.034;5.342;2024-01-06T09:13:13;5.75;;;4.00;;
19280;SDS011;9774;52.034;5.342;2024-01-06T09:15:41;4.93;;;3.70;;
19280;SDS011;9774;52.034;5.342;2024-01-06T09:18:08;4.90;;;3.55;;
19280;SDS011;9774;52.034;5.342;2024-01-06T09:20:35;4.80;;;3.90;;
19280;SDS011;9774;52.034;5.342;2024-01-06T09:23:03;5.00;;;4.05;;
19280;SDS011;9774;52.034;5.342;2024-01-06T09:25:31;5.80;;;4.05;;
19280;SDS011;9774;52.034;5.342;2024-01-06T09:27:58;4.00;;;3.10;;
19280;SDS011;9774;52.034;5.342;2024-01-06T09:30:25;5.78;;;4.15;;
19280;SDS011;9774;52.034;5.342;2024-01-06T09:32:54;5.55;;;3.78;;
19280;SDS011;9774;52.034;5.342;2024-01-06T09:35:21;3.97;;;3.13;;
19280;SDS011;9774;52.034;5.342;2024-01-06T09:37:48;5.85;;;3.50;;
19280;SDS011;9774;52.034;5.342;2024-01-06T09:40:18;6.22;;;4.20;;
19280;SDS011;9774;52.034;5.342;2024-01-06T09:42:49;5.45;;;4.00;;
19280;SDS011;9774;52.034;5.342;2024-01-06T09:45:16;4.68;;;3.50;;
19280;SDS011;9774;52.034;5.342;2024-01-06T09:47:44;5.25;;;3.78;;
19280;SDS011;9774;52.034;5.342;2024-01-06T09:50:18;5.50;;;3.90;;
19280;SDS011;9774;52.034;5.342;2024-01-06T09:52:48;4.90;;;3.08;;
19280;SDS011;9774;52.034;5.342;2024-01-06T09:55:20;4.47;;;3.55;;
19280;SDS011;9774;52.034;5.342;2024-01-06T09:57:52;4.20;;;3.38;;
19280;SDS011;9774;52.034;5.342;2024-01-06T10:00:19;5.32;;;3.75;;
19280;SDS011;9774;52.034;5.342;2024-01-06T10:02:47;3.78;;;2.80;;
19280;SDS011;9774;52.034;5.342;2024-01-06T10:05:16;4.88;;;3.33;;
19280;SDS011;9774;52.034;5.342;2024-01-06T10:07:45;4.18;;;3.30;;
19280;SDS011;9774;52.034;5.342;2024-01-06T10:10:13;5.95;;;3.78;;
19280;SDS011;9774;52.034;5.342;2024-01-06T10:12:42;3.92;;;3.22;;
19280;SDS011;9774;52.034;5.342;2024-01-06T10:15:10;6.82;;;3.80;;
19280;SDS011;9774;52.034;5.342;2024-01-06T10:17:38;7.05;;;4.03;;
19280;SDS011;9774;52.034;5.342;2024-01-06T10:20:09;5.20;;;3.60;;
19280;SDS011;9774;52.034;5.342;2024-01-06T10:22:40;4.15;;;3.70;;
19280;SDS011;9774;52.034;5.342;2024-01-06T10:25:09;5.13;;;3.45;;
19280;SDS011;9774;52.034;5.342;2024-01-06T10:27:38;4.80;;;3.67;;
19280;SDS011;9774;52.034;5.342;2024-01-06T10:30:07;4.32;;;3.60;;
19280;SDS011;9774;52.034;5.342;2024-01-06T10:32:36;4.05;;;3.28;;
19280;SDS011;9774;52.034;5.342;2024-01-06T10:35:03;5.28;;;3.78;;
19280;SDS011;9774;52.034;5.342;2024-01-06T10:37:32;5.03;;;3.35;;
19280;SDS011;9774;52.034;5.342;2024-01-06T10:40:08;5.43;;;3.28;;
19280;SDS011;9774;52.034;5.342;2024-01-06T10:42:37;4.15;;;3.17;;
19280;SDS011;9774;52.034;5.342;2024-01-06T10:45:06;5.88;;;3.63;;
19280;SDS011;9774;52.034;5.342;2024-01-06T10:47:35;3.72;;;3.03;;
19280;SDS011;9774;52.034;5.342;2024-01-06T10:50:03;4.72;;;3.30;;
19280;SDS011;9774;52.034;5.342;2024-01-06T10:52:33;4.10;;;3.33;;
19280;SDS011;9774;52.034;5.342;2024-01-06T10:55:01;4.45;;;3.38;;
19280;SDS011;9774;52.034;5.342;2024-01-06T10:57:30;4.75;;;3.17;;
19280;SDS011;9774;52.034;5.342;2024-01-06T10:59:58;3.38;;;2.92;;
19280;SDS011;9774;52.034;5.342;2024-01-06T11:02:26;4.90;;;3.50;;
19280;SDS011;9774;52.034;5.342;2024-01-06T11:04:53;4.30;;;3.50;;
19280;SDS011;9774;52.034;5.342;2024-01-06T11:07:21;5.25;;;3.95;;
19280;SDS011;9774;52.034;5.342;2024-01-06T11:09:52;3.90;;;3.22;;
19280;SDS011;9774;52.034;5.342;2024-01-06T11:12:24;4.57;;;3.35;;
19280;SDS011;9774;52.034;5.342;2024-01-06T11:14:53;3.75;;;3.25;;
19280;SDS011;9774;52.034;5.342;2024-01-06T11:20:23;6.03;;;4.45;;
19280;SDS011;9774;52.034;5.342;2024-01-06T11:22:51;5.55;;;3.97;;
19280;SDS011;9774;52.034;5.342;2024-01-06T11:25:19;5.95;;;4.10;;
19280;SDS011;9774;52.034;5.342;2024-01-06T11:27:48;4.65;;;4.15;;
19280;SDS011;9774;52.034;5.342;2024-01-06T11:30:24;4.35;;;3.60;;
19280;SDS011;9774;52.034;5.342;2024-01-06T11:32:53;7.72;;;4.53;;
19280;SDS011;9774;52.034;5.342;2024-01-06T11:35:25;6.55;;;4.13;;
19280;SDS011;9774;52.034;5.342;2024-01-06T11:37:54;5.05;;;3.58;;
19280;SDS011;9774;52.034;5.342;2024-01-06T11:40:24;4.05;;;3.60;;
19280;SDS011;9774;52.034;5.342;2024-01-06T11:43:00;5.57;;;3.75;;
19280;SDS011;9774;52.034;5.342;2024-01-06T11:45:31;4.85;;;4.18;;
19280;SDS011;9774;52.034;5.342;2024-01-06T11:48:00;5.18;;;3.80;;
19280;SDS011;9774;52.034;5.342;2024-01-06T11:50:30;7.85;;;3.78;;
19280;SDS011;9774;52.034;5.342;2024-01-06T11:52:58;5.78;;;3.70;;
19280;SDS011;9774;52.034;5.342;2024-01-06T11:55:26;4.47;;;3.40;;
19280;SDS011;9774;52.034;5.342;2024-01-06T11:57:54;5.00;;;3.90;;
19280;SDS011;9774;52.034;5.342;2024-01-06T12:00:22;5.45;;;4.13;;
19280;SDS011;9774;52.034;5.342;2024-01-06T12:02:51;6.03;;;4.22;;
19280;SDS011;9774;52.034;5.342;2024-01-06T12:05:23;4.60;;;3.38;;
19280;SDS011;9774;52.034;5.342;2024-01-06T12:07:54;4.57;;;3.45;;
19280;SDS011;9774;52.034;5.342;2024-01-06T12:10:23;4.28;;;3.33;;
19280;SDS011;9774;52.034;5.342;2024-01-06T12:12:57;5.57;;;3.90;;
19280;SDS011;9774;52.034;5.342;2024-01-06T12:15:26;6.05;;;3.65;;
19280;SDS011;9774;52.034;5.342;2024-01-06T12:17:56;5.05;;;3.75;;
19280;SDS011;9774;52.034;5.342;2024-01-06T12:20:24;5.07;;;3.80;;
19280;SDS011;9774;52.034;5.342;2024-01-06T12:22:53;5.75;;;3.58;;
19280;SDS011;9774;52.034;5.342;2024-01-06T12:25:22;5.32;;;3.63;;
19280;SDS011;9774;52.034;5.342;2024-01-06T12:27:51;4.85;;;3.53;;
19280;SDS011;9774;52.034;5.342;2024-01-06T12:30:19;6.53;;;3.83;;
19280;SDS011;9774;52.034;5.342;2024-01-06T12:32:49;6.45;;;3.72;;
19280;SDS011;9774;52.034;5.342;2024-01-06T12:35:19;4.95;;;3.95;;
19280;SDS011;9774;52.034;5.342;2024-01-06T12:37:47;6.20;;;3.95;;
19280;SDS011;9774;52.034;5.342;2024-01-06T12:40:15;3.97;;;3.13;;
19280;SDS011;9774;52.034;5.342;2024-01-06T12:42:44;5.75;;;3.28;;
19280;SDS011;9774;52.034;5.342;2024-01-06T12:45:12;7.07;;;4.05;;
19280;SDS011;9774;52.034;5.342;2024-01-06T12:47:41;4.72;;;3.80;;
19280;SDS011;9774;52.034;5.342;2024-01-06T12:50:08;5.30;;;3.95;;
19280;SDS011;9774;52.034;5.342;2024-01-06T12:52:37;6.75;;;3.88;;
19280;SDS011;9774;52.034;5.342;2024-01-06T12:55:05;3.85;;;3.45;;
19280;SDS011;9774;52.034;5.342;2024-01-06T12:57:32;4.60;;;3.33;;
19280;SDS011;9774;52.034;5.342;2024-01-06T13:00:00;5.68;;;4.25;;
19280;SDS011;9774;52.034;5.342;2024-01-06T13:02:27;4.30;;;3.75;;
19280;SDS011;9774;52.034;5.342;2024-01-06T13:04:54;4.75;;;3.58;;
19280;SDS011;9774;52.034;5.342;2024-01-06T13:07:21;3.97;;;3.58;;
19280;SDS011;9774;52.034;5.342;2024-01-06T13:09:50;4.95;;;3.88;;
19280;SDS011;9774;52.034;5.342;2024-01-06T13:12:17;5.50;;;3.72;;
19280;SDS011;9774;52.034;5.342;2024-01-06T13:14:45;5.22;;;4.00;;
19280;SDS011;9774;52.034;5.342;2024-01-06T13:17:12;6.05;;;4.57;;
19280;SDS011;9774;52.034;5.342;2024-01-06T13:19:40;5.18;;;4.05;;
19280;SDS011;9774;52.034;5.342;2024-01-06T13:22:07;5.72;;;4.72;;
19280;SDS011;9774;52.034;5.342;2024-01-06T13:24:34;6.50;;;5.18;;
19280;SDS011;9774;52.034;5.342;2024-01-06T13:27:03;5.28;;;4.03;;
19280;SDS011;9774;52.034;5.342;2024-01-06T13:29:30;6.43;;;4.65;;
19280;SDS011;9774;52.034;5.342;2024-01-06T13:31:57;5.97;;;4.82;;
19280;SDS011;9774;52.034;5.342;2024-01-06T13:34:25;6.13;;;4.80;;
19280;SDS011;9774;52.034;5.342;2024-01-06T13:36:54;6.05;;;4.63;;
19280;SDS011;9774;52.034;5.342;2024-01-06T13:39:23;7.65;;;5.00;;
19280;SDS011;9774;52.034;5.342;2024-01-06T13:41:50;8.27;;;5.40;;
19280;SDS011;9774;52.034;5.342;2024-01-06T13:44:19;6.97;;;4.78;;
19280;SDS011;9774;52.034;5.342;2024-01-06T13:46:47;6.28;;;4.40;;
19280;SDS011;9774;52.034;5.342;2024-01-06T13:49:16;6.20;;;5.07;;
19280;SDS011;9774;52.034;5.342;2024-01-06T13:51:43;6.32;;;4.82;;
19280;SDS011;9774;52.034;5.342;2024-01-06T13:54:10;5.95;;;4.57;;
19280;SDS011;9774;52.034;5.342;2024-01-06T13:56:38;6.40;;;4.55;;
19280;SDS011;9774;52.034;5.342;2024-01-06T13:59:05;5.28;;;4.68;;
19280;SDS011;9774;52.034;5.342;2024-01-06T14:01:34;6.28;;;4.03;;
19280;SDS011;9774;52.034;5.342;2024-01-06T14:04:01;6.43;;;4.95;;
19280;SDS011;9774;52.034;5.342;2024-01-06T14:06:30;8.45;;;5.75;;
19280;SDS011;9774;52.034;5.342;2024-01-06T14:08:59;6.07;;;4.88;;
19280;SDS011;9774;52.034;5.342;2024-01-06T14:11:26;5.53;;;4.95;;
19280;SDS011;9774;52.034;5.342;2024-01-06T14:13:56;6.45;;;4.82;;
19280;SDS011;9774;52.034;5.342;2024-01-06T14:16:24;8.85;;;5.80;;
19280;SDS011;9774;52.034;5.342;2024-01-06T14:18:53;7.22;;;5.22;;
19280;SDS011;9774;52.034;5.342;2024-01-06T14:21:20;9.57;;;5.32;;
19280;SDS011;9774;52.034;5.342;2024-01-06T14:23:47;8.70;;;5.38;;
19280;SDS011;9774;52.034;5.342;2024-01-06T14:26:14;5.47;;;4.88;;
19280;SDS011;9774;52.034;5.342;2024-01-06T14:28:42;7.55;;;5.82;;
19280;SDS011;9774;52.034;5.342;2024-01-06T14:31:09;6.60;;;5.15;;
19280;SDS011;9774;52.034;5.342;2024-01-06T14:33:36;7.57;;;5.57;;
19280;SDS011;9774;52.034;5.342;2024-01-06T14:36:05;7.10;;;5.45;;
19280;SDS011;9774;52.034;5.342;2024-01-06T14:38:33;6.38;;;4.85;;
19280;SDS011;9774;52.034;5.342;2024-01-06T14:41:01;6.93;;;5.45;;
19280;SDS011;9774;52.034;5.342;2024-01-06T14:43:28;8.25;;;6.13;;
19280;SDS011;9774;52.034;5.342;2024-01-06T14:45:55;7.70;;;5.03;;
19280;SDS011;9774;52.034;5.342;2024-01-06T14:48:22;8.10;;;5.30;;
19280;SDS011;9774;52.034;5.342;2024-01-06T14:50:49;8.32;;;5.63;;
19280;SDS011;9774;52.034;5.342;2024-01-06T14:53:18;6.72;;;5.10;;
19280;SDS011;9774;52.034;5.342;2024-01-06T14:55:45;7.50;;;5.15;;
19280;SDS011;9774;52.034;5.342;2024-01-06T14:58:12;7.97;;;5.20;;
19280;SDS011;9774;52.034;5.342;2024-01-06T15:00:39;7.57;;;4.95;;
19280;SDS011;9774;52.034;5.342;2024-01-06T15:03:06;6.00;;;5.25;;
19280;SDS011;9774;52.034;5.342;2024-01-06T15:05:33;8.00;;;5.80;;
19280;SDS011;9774;52.034;5.342;2024-01-06T15:08:00;10.82;;;6.18;;